createdAt,value
2022-11-08T00:03:57.919Z,53.60
2022-11-08T00:09:23.639Z,47.40
2022-11-08T00:14:31.357Z,53.50
2022-11-08T00:19:39.585Z,56.20
2022-11-08T00:24:47.213Z,50.50
2022-11-08T00:29:54.375Z,49.50
2022-11-08T00:35:01.770Z,57.00
2022-11-08T00:40:11.206Z,54.20
2022-11-08T00:45:18.501Z,45.90
2022-11-08T00:55:31.573Z,47.40
2022-11-08T01:00:38.887Z,51.20
2022-11-08T01:05:46.172Z,50.80
2022-11-08T01:15:59.885Z,49.00
2022-11-08T01:26:16.982Z,52.40
2022-11-08T01:31:29.219Z,46.10
2022-11-08T01:36:36.373Z,45.10
2022-11-08T01:41:43.462Z,48.10
2022-11-08T01:46:50.747Z,47.30
2022-11-08T01:52:12.010Z,46.80
2022-11-08T01:57:22.536Z,48.40
2022-11-08T02:02:30.395Z,43.30
2022-11-08T02:07:38.137Z,46.50
2022-11-08T02:12:46.046Z,54.50
2022-11-08T02:17:53.963Z,42.20
2022-11-08T02:23:08.368Z,37.70
2022-11-08T02:28:16.830Z,28.70
2022-11-08T02:33:25.020Z,28.70
2022-11-08T02:38:33.227Z,29.50
2022-11-08T02:43:40.892Z,32.60
2022-11-08T02:53:53.457Z,34.20
2022-11-08T02:59:00.728Z,37.10
2022-11-08T03:04:08.693Z,32.20
2022-11-08T03:09:16.079Z,32.20
2022-11-08T03:14:23.881Z,37.70
2022-11-08T03:19:31.086Z,35.10
2022-11-08T03:24:38.719Z,36.00
2022-11-08T03:29:45.803Z,31.20
2022-11-08T03:34:52.779Z,36.70
2022-11-08T03:39:59.904Z,35.60
2022-11-08T03:50:16.251Z,30.80
2022-11-08T03:55:26.195Z,37.50
2022-11-08T04:00:33.241Z,32.10
2022-11-08T04:05:40.564Z,32.70
2022-11-08T04:10:47.856Z,33.00
2022-11-08T04:15:57.729Z,32.60
2022-11-08T04:21:20.106Z,33.80
2022-11-08T04:26:27.390Z,31.40
2022-11-08T04:36:40.308Z,30.30
2022-11-08T04:41:47.464Z,33.40
2022-11-08T04:46:54.451Z,31.10
2022-11-08T04:57:07.727Z,34.10
2022-11-08T05:02:14.930Z,28.00
2022-11-08T05:07:22.244Z,30.00
2022-11-08T05:12:30.035Z,34.00
2022-11-08T05:17:37.422Z,30.30
2022-11-08T05:28:08.153Z,29.00
2022-11-08T05:43:29.183Z,27.40
2022-11-08T05:48:36.567Z,29.30
2022-11-08T05:53:43.963Z,27.80
2022-11-08T05:58:51.102Z,31.80
2022-11-08T06:03:58.497Z,28.70
2022-11-08T06:09:05.740Z,21.80
2022-11-08T06:14:13.485Z,32.00
2022-11-08T06:19:20.541Z,30.20
2022-11-08T06:24:28.006Z,31.70
2022-11-08T06:29:35.238Z,30.90
2022-11-08T06:39:47.740Z,32.40
2022-11-08T06:50:00.488Z,19.70
2022-11-08T06:55:09.001Z,20.10
2022-11-08T07:00:18.033Z,30.40
2022-11-08T07:05:25.384Z,27.80
2022-11-08T07:10:34.752Z,27.90
2022-11-08T07:15:42.713Z,26.00
2022-11-08T07:20:49.845Z,31.10
2022-11-08T07:25:57.384Z,30.10
2022-11-08T07:31:06.271Z,32.50
2022-11-08T07:36:13.349Z,30.00
2022-11-08T07:41:20.618Z,31.80
2022-11-08T07:46:28.456Z,34.90
2022-11-08T07:51:35.730Z,35.80
2022-11-08T08:01:48.562Z,27.60
2022-11-08T08:56:20.930Z,26.50
2022-11-08T09:01:40.741Z,19.70
2022-11-08T09:06:44.681Z,24.80
2022-11-08T09:11:48.512Z,22.60
2022-11-08T09:16:52.202Z,17.10
2022-11-08T09:21:55.833Z,19.60
2022-11-08T09:27:03.099Z,15.80
2022-11-08T09:32:06.967Z,16.00
2022-11-08T09:37:10.579Z,16.50
2022-11-08T09:42:45.150Z,17.80
2022-11-08T09:47:54.207Z,14.80
2022-11-08T09:53:07.751Z,15.50
2022-11-08T09:58:22.658Z,21.30
2022-11-08T10:03:27.550Z,16.10
2022-11-08T10:08:39.345Z,16.70
2022-11-08T10:13:56.155Z,14.20
2022-11-08T10:19:15.156Z,13.10
2022-11-08T10:24:27.033Z,10.30
2022-11-08T10:29:36.774Z,9.80
2022-11-08T10:34:46.799Z,7.90
2022-11-08T10:39:56.664Z,13.10
2022-11-08T10:45:00.910Z,9.50
2022-11-08T10:50:13.849Z,6.80
2022-11-08T10:55:27.164Z,6.50
2022-11-08T11:00:32.949Z,7.00
2022-11-08T11:05:37.920Z,6.30
2022-11-08T11:10:43.374Z,6.20
2022-11-08T11:15:50.464Z,7.30
2022-11-08T11:21:07.907Z,5.20
2022-11-08T11:26:21.910Z,6.70
2022-11-08T11:31:25.727Z,5.30
2022-11-08T11:36:31.184Z,5.00
2022-11-08T11:41:43.068Z,5.20
2022-11-08T11:46:55.960Z,7.60
2022-11-08T11:51:59.671Z,6.60
2022-11-08T11:57:08.645Z,6.70
2022-11-08T12:02:49.668Z,5.80
2022-11-08T12:08:05.556Z,4.30
2022-11-08T12:13:17.139Z,5.30
2022-11-08T12:18:49.650Z,6.00
2022-11-08T12:24:08.208Z,5.90
2022-11-08T12:29:23.712Z,5.50
2022-11-08T12:34:38.140Z,5.60
2022-11-08T12:39:46.506Z,5.90
2022-11-08T12:45:18.447Z,7.80
2022-11-08T12:50:29.591Z,5.20
2022-11-08T12:55:37.083Z,5.20
2022-11-08T13:00:43.837Z,6.50
2022-11-08T13:05:57.671Z,5.70
2022-11-08T13:11:05.975Z,4.70
2022-11-08T13:16:15.238Z,4.30
2022-11-08T13:21:40.415Z,7.00
2022-11-08T13:26:44.509Z,5.30
2022-11-08T13:31:52.432Z,5.30
2022-11-08T13:37:12.796Z,5.10
2022-11-08T13:42:55.536Z,6.20
2022-11-08T13:48:01.388Z,5.60
2022-11-08T13:53:09.319Z,4.60
2022-11-08T13:58:31.144Z,4.40
2022-11-08T14:03:54.137Z,6.30
2022-11-08T14:09:14.320Z,5.20
2022-11-08T14:14:52.004Z,4.70
2022-11-08T14:19:59.070Z,7.90
2022-11-08T14:25:16.816Z,8.10
2022-11-08T14:30:23.226Z,7.30
2022-11-08T14:35:27.502Z,7.70
2022-11-08T14:40:31.308Z,6.80
2022-11-08T14:45:35.096Z,10.30
2022-11-08T14:50:39.021Z,5.20
2022-11-08T14:55:43.623Z,5.90
2022-11-08T15:00:49.602Z,7.50
2022-11-08T15:05:58.718Z,6.80
2022-11-08T15:11:05.668Z,6.60
2022-11-08T15:16:10.694Z,6.60
2022-11-08T15:21:28.601Z,10.80
2022-11-08T15:26:34.182Z,7.30
2022-11-08T15:31:41.895Z,10.70
2022-11-08T15:36:45.717Z,9.80
2022-11-08T15:42:00.029Z,7.20
2022-11-08T15:47:05.356Z,8.20
2022-11-08T15:52:09.143Z,6.80
2022-11-08T15:57:12.731Z,6.80
2022-11-08T16:02:22.374Z,8.60
2022-11-08T16:07:26.769Z,8.70
2022-11-08T16:12:31.887Z,11.40
2022-11-08T16:17:35.679Z,8.40
2022-11-08T16:22:39.511Z,6.50
2022-11-08T16:27:43.222Z,8.70
2022-11-08T16:32:46.900Z,14.10
2022-11-08T16:37:51.625Z,11.60
2022-11-08T16:42:55.700Z,10.30
2022-11-08T16:47:59.586Z,17.30
2022-11-08T16:53:03.773Z,12.30
2022-11-08T16:58:07.578Z,12.00
2022-11-08T17:03:18.371Z,13.60
2022-11-08T17:08:24.597Z,12.70
2022-11-08T17:13:28.681Z,11.00
2022-11-08T17:18:32.537Z,16.20
2022-11-08T17:23:36.349Z,19.80
2022-11-08T17:28:41.084Z,14.70
2022-11-08T17:33:44.789Z,13.50
2022-11-08T17:38:48.408Z,12.30
2022-11-08T17:43:52.263Z,18.60
2022-11-08T17:48:56.169Z,14.30
2022-11-08T17:54:00.323Z,17.60
2022-11-08T17:59:04.216Z,21.70
2022-11-08T18:04:08.092Z,19.40
2022-11-08T18:09:12.010Z,24.90
2022-11-08T18:14:17.177Z,20.50
2022-11-08T18:19:21.606Z,27.30
2022-11-08T18:24:25.236Z,19.80
2022-11-08T18:29:29.058Z,24.80
2022-11-08T18:34:32.684Z,21.70
2022-11-08T18:39:36.629Z,26.70
2022-11-08T18:44:50.138Z,27.90
2022-11-08T18:49:58.843Z,31.70
2022-11-08T18:59:04.893Z,43.10
2022-11-08T19:04:12.674Z,50.90
2022-11-08T19:09:20.495Z,58.70
2022-11-08T19:14:28.510Z,55.90
2022-11-08T19:19:37.147Z,68.70
2022-11-08T19:24:44.443Z,63.70
2022-11-08T19:29:51.911Z,69.60
2022-11-08T19:35:00.169Z,83.50
2022-11-08T19:40:09.380Z,87.80
2022-11-08T19:45:18.992Z,85.90
2022-11-08T19:53:44.383Z,69.40
2022-11-08T19:58:54.179Z,81.80
2022-11-08T20:04:02.952Z,82.70
2022-11-08T20:09:16.130Z,88.50
2022-11-08T20:14:24.883Z,84.20
2022-11-08T20:19:33.324Z,88.00
2022-11-08T20:24:40.584Z,85.70
2022-11-08T20:34:55.224Z,80.50
2022-11-08T20:40:03.519Z,80.70
2022-11-08T20:45:15.315Z,81.90
2022-11-08T20:50:22.808Z,71.80
2022-11-08T20:55:30.944Z,73.10
2022-11-08T21:00:57.290Z,76.50
2022-11-08T21:06:08.458Z,73.20
2022-11-08T21:11:19.275Z,80.80
2022-11-08T21:16:33.332Z,63.10
2022-11-08T21:21:46.650Z,61.90
2022-11-08T21:26:54.694Z,76.20
2022-11-08T21:32:02.389Z,65.90
2022-11-08T21:37:13.288Z,64.60
2022-11-08T21:42:21.782Z,60.20
2022-11-08T21:47:29.133Z,53.20
2022-11-08T21:52:38.296Z,54.30
2022-11-08T22:00:54.891Z,65.30
2022-11-08T22:06:02.605Z,63.00
2022-11-08T22:11:10.391Z,49.40
2022-11-08T22:16:18.103Z,55.30
2022-11-08T22:21:43.423Z,42.40
2022-11-08T22:26:52.383Z,63.00
2022-11-08T22:32:00.476Z,57.10
2022-11-08T22:37:09.696Z,62.10
2022-11-08T22:42:17.304Z,51.50
2022-11-08T22:47:25.076Z,57.60
2022-11-08T22:52:32.422Z,54.50
2022-11-08T22:57:39.975Z,49.70
2022-11-08T23:02:49.855Z,57.10
2022-11-08T23:17:44.387Z,52.00
2022-11-08T23:23:09.821Z,47.80
2022-11-08T23:28:35.343Z,56.60
2022-11-08T23:33:46.986Z,41.90
2022-11-08T23:38:54.570Z,43.10
2022-11-08T23:44:19.725Z,41.80
2022-11-08T23:49:27.517Z,48.90
2022-11-08T23:54:35.080Z,46.40
2022-11-08T23:59:42.809Z,45.00
